createdAt,value
2019-02-12T00:01:35.023Z,11.73
2019-02-12T00:04:03.310Z,11.16
2019-02-12T00:06:33.611Z,11.13
2019-02-12T00:09:01.951Z,11.41
2019-02-12T00:11:30.292Z,11.28
2019-02-12T00:13:58.541Z,11.67
2019-02-12T00:16:26.867Z,11.73
2019-02-12T00:18:55.164Z,11.71
2019-02-12T00:21:23.438Z,11.37
2019-02-12T00:23:51.742Z,11.51
2019-02-12T00:26:20.130Z,11.59
2019-02-12T00:28:48.383Z,10.96
2019-02-12T00:31:16.643Z,11.65
2019-02-12T00:33:44.906Z,12.40
2019-02-12T00:36:13.219Z,11.97
2019-02-12T00:38:41.475Z,12.11
2019-02-12T00:41:09.751Z,12.42
2019-02-12T00:43:38.029Z,12.49
2019-02-12T00:46:06.452Z,12.28
2019-02-12T00:48:34.706Z,11.85
2019-02-12T00:51:17.538Z,12.33
2019-02-12T00:53:46.005Z,11.95
2019-02-12T00:56:14.289Z,12.60
2019-02-12T00:58:42.641Z,12.37
2019-02-12T01:01:10.915Z,12.71
2019-02-12T01:03:39.316Z,12.26
2019-02-12T01:06:07.569Z,12.29
2019-02-12T01:08:35.876Z,11.93
2019-02-12T01:11:04.153Z,12.16
2019-02-12T01:13:32.553Z,12.29
2019-02-12T01:16:00.917Z,13.34
2019-02-12T01:18:29.275Z,12.51
2019-02-12T01:20:57.690Z,12.71
2019-02-12T01:23:25.953Z,11.60
2019-02-12T01:25:54.297Z,12.20
2019-02-12T01:28:22.620Z,11.05
2019-02-12T01:30:50.877Z,11.78
2019-02-12T01:33:19.168Z,12.39
2019-02-12T01:35:47.440Z,11.67
2019-02-12T01:38:15.685Z,12.77
2019-02-12T01:40:45.736Z,12.54
2019-02-12T01:43:14.118Z,12.71
2019-02-12T01:45:42.388Z,12.33
2019-02-12T01:48:10.734Z,11.95
2019-02-12T01:50:39.007Z,11.52
2019-02-12T01:53:07.292Z,12.01
2019-02-12T01:55:35.570Z,11.91
2019-02-12T01:58:03.870Z,11.93
2019-02-12T02:00:32.125Z,11.69
2019-02-12T02:03:00.403Z,11.98
2019-02-12T02:05:28.676Z,12.48
2019-02-12T02:07:56.955Z,12.15
2019-02-12T02:10:25.240Z,12.48
2019-02-12T02:12:53.495Z,12.40
2019-02-12T02:15:21.757Z,11.63
2019-02-12T02:17:50.028Z,11.69
2019-02-12T02:20:18.355Z,12.72
2019-02-12T02:22:46.633Z,12.52
2019-02-12T02:25:14.905Z,13.07
2019-02-12T02:27:43.183Z,14.05
2019-02-12T02:30:14.065Z,13.82
2019-02-12T02:32:42.418Z,13.92
2019-02-12T02:35:10.715Z,13.00
2019-02-12T02:37:39.002Z,13.58
2019-02-12T02:40:09.414Z,13.33
2019-02-12T02:42:37.872Z,12.88
2019-02-12T02:45:09.150Z,13.07
2019-02-12T02:47:37.454Z,12.68
2019-02-12T02:50:08.054Z,12.24
2019-02-12T02:52:36.338Z,13.87
2019-02-12T02:55:07.100Z,12.99
2019-02-12T02:57:35.379Z,13.16
2019-02-12T03:00:06.311Z,12.46
2019-02-12T03:02:34.545Z,12.41
2019-02-12T03:05:02.821Z,11.99
2019-02-12T03:07:31.076Z,12.09
2019-02-12T03:09:59.381Z,12.36
2019-02-12T03:12:27.630Z,11.59
2019-02-12T03:14:55.904Z,11.58
2019-02-12T03:17:24.172Z,12.80
2019-02-12T03:19:52.445Z,12.16
2019-02-12T03:22:20.709Z,12.26
2019-02-12T03:24:48.972Z,12.21
2019-02-12T03:27:17.265Z,12.71
2019-02-12T03:29:45.553Z,12.41
2019-02-12T03:32:13.822Z,11.52
2019-02-12T03:34:42.100Z,11.67
2019-02-12T03:37:10.352Z,11.78
2019-02-12T03:39:40.195Z,11.99
2019-02-12T03:42:08.473Z,12.89
2019-02-12T03:44:36.711Z,12.65
2019-02-12T03:47:05.002Z,12.44
2019-02-12T03:49:33.259Z,12.31
2019-02-12T03:52:01.560Z,11.50
2019-02-12T03:54:29.875Z,12.62
2019-02-12T03:56:58.134Z,13.30
2019-02-12T03:59:26.421Z,13.55
2019-02-12T04:01:54.687Z,12.96
2019-02-12T04:04:22.989Z,12.93
2019-02-12T04:06:51.239Z,12.39
2019-02-12T04:09:19.512Z,11.89
2019-02-12T04:11:47.794Z,12.38
2019-02-12T04:14:16.072Z,12.09
2019-02-12T04:16:44.331Z,12.02
2019-02-12T04:19:12.589Z,12.03
2019-02-12T04:21:40.875Z,11.98
2019-02-12T04:24:09.150Z,12.04
2019-02-12T04:26:37.414Z,12.56
2019-02-12T04:29:05.703Z,11.87
2019-02-12T04:31:33.990Z,11.98
2019-02-12T04:34:02.251Z,12.46
2019-02-12T04:36:30.548Z,12.48
2019-02-12T04:38:58.889Z,12.00
2019-02-12T04:41:27.146Z,12.94
2019-02-12T04:43:55.449Z,13.22
2019-02-12T04:46:23.734Z,13.03
2019-02-12T04:48:52.043Z,12.82
2019-02-12T04:51:20.310Z,13.37
2019-02-12T04:53:48.573Z,12.34
2019-02-12T04:56:16.845Z,13.27
2019-02-12T04:58:45.129Z,12.98
2019-02-12T05:01:13.403Z,13.16
2019-02-12T05:03:41.686Z,12.51
2019-02-12T05:06:09.964Z,11.62
2019-02-12T05:09:07.224Z,12.09
2019-02-12T05:11:35.510Z,12.49
2019-02-12T05:14:03.792Z,11.25
2019-02-12T05:16:32.047Z,12.78
2019-02-12T05:19:00.347Z,12.63
2019-02-12T05:21:28.625Z,12.40
2019-02-12T05:23:59.039Z,12.94
2019-02-12T05:26:26.883Z,12.44
2019-02-12T05:28:55.156Z,12.28
2019-02-12T05:31:23.422Z,12.55
2019-02-12T05:33:51.699Z,11.95
2019-02-12T05:36:19.998Z,12.45
2019-02-12T05:38:48.271Z,12.57
2019-02-12T05:41:16.551Z,11.46
2019-02-12T05:43:44.823Z,10.97
2019-02-12T05:46:13.099Z,11.14
2019-02-12T05:48:41.376Z,12.27
2019-02-12T05:51:09.633Z,13.04
2019-02-12T05:53:37.897Z,11.66
2019-02-12T05:56:06.175Z,12.29
2019-02-12T05:58:34.441Z,12.28
2019-02-12T06:01:02.759Z,13.47
2019-02-12T06:03:31.033Z,12.24
2019-02-12T06:05:59.306Z,12.18
2019-02-12T06:08:27.632Z,11.92
2019-02-12T06:10:55.921Z,12.19
2019-02-12T06:13:24.189Z,11.83
2019-02-12T06:15:52.535Z,12.77
2019-02-12T06:18:20.786Z,11.90
2019-02-12T06:20:49.050Z,11.87
2019-02-12T06:23:17.357Z,11.46
2019-02-12T06:25:45.628Z,11.95
2019-02-12T06:28:13.897Z,11.66
2019-02-12T06:30:43.909Z,11.52
2019-02-12T06:33:12.191Z,12.18
2019-02-12T06:35:40.553Z,11.66
2019-02-12T06:38:08.808Z,12.28
2019-02-12T06:40:37.089Z,12.16
2019-02-12T06:43:05.352Z,12.20
2019-02-12T06:45:33.637Z,11.85
2019-02-12T06:48:01.905Z,12.03
2019-02-12T06:50:30.183Z,12.11
2019-02-12T06:52:58.450Z,11.39
2019-02-12T06:55:26.735Z,12.41
2019-02-12T06:57:55.010Z,12.04
2019-02-12T07:00:23.297Z,12.80
2019-02-12T07:03:19.867Z,12.65
2019-02-12T07:05:57.275Z,13.23
2019-02-12T07:08:45.985Z,12.85
2019-02-12T07:11:41.296Z,11.95
2019-02-12T07:14:33.313Z,11.96
2019-02-12T07:17:13.540Z,12.37
2019-02-12T07:19:57.234Z,12.83
2019-02-12T07:22:37.348Z,12.47
2019-02-12T07:25:27.077Z,12.08
2019-02-12T07:28:07.104Z,11.86
2019-02-12T07:30:59.430Z,11.96
2019-02-12T07:33:45.409Z,11.99
2019-02-12T07:36:37.750Z,12.28
2019-02-12T07:39:23.910Z,13.00
2019-02-12T07:42:13.539Z,11.68
2019-02-12T07:44:44.992Z,10.81
2019-02-12T07:47:28.487Z,11.33
2019-02-12T07:50:16.461Z,10.33
2019-02-12T07:53:05.915Z,10.30
2019-02-12T07:55:46.155Z,12.31
2019-02-12T07:58:37.050Z,12.12
2019-02-12T08:01:30.483Z,12.05
2019-02-12T08:04:13.721Z,12.67
2019-02-12T08:06:54.054Z,12.71
2019-02-12T08:09:41.738Z,10.85
2019-02-12T08:12:29.413Z,11.14
2019-02-12T08:15:06.857Z,12.10
2019-02-12T08:17:41.507Z,12.59
2019-02-12T08:20:15.764Z,11.86
2019-02-12T08:23:12.922Z,12.37
2019-02-12T08:25:56.235Z,11.64
2019-02-12T08:28:30.221Z,12.11
2019-02-12T08:31:01.687Z,12.88
2019-02-12T08:34:04.439Z,12.42
2019-02-12T08:36:38.744Z,12.66
2019-02-12T08:39:13.119Z,13.22
2019-02-12T08:41:44.557Z,12.72
2019-02-12T08:44:37.123Z,13.41
2019-02-12T08:47:35.855Z,13.16
2019-02-12T08:50:26.987Z,11.98
2019-02-12T08:53:07.600Z,13.48
2019-02-12T08:55:58.868Z,12.67
2019-02-12T08:58:33.155Z,12.34
2019-02-12T09:01:14.294Z,12.59
2019-02-12T09:03:48.344Z,12.81
2019-02-12T09:06:22.706Z,12.79
2019-02-12T09:08:59.728Z,13.82
2019-02-12T09:11:36.502Z,13.28
2019-02-12T09:14:16.806Z,13.51
2019-02-12T09:17:00.139Z,12.77
2019-02-12T09:19:37.545Z,13.58
2019-02-12T09:22:17.756Z,13.33
2019-02-12T09:25:00.888Z,13.85
2019-02-12T09:27:41.371Z,13.61
2019-02-12T09:30:27.209Z,13.55
2019-02-12T09:33:30.656Z,14.63
2019-02-12T09:36:07.653Z,12.92
2019-02-12T09:38:47.938Z,12.34
2019-02-12T09:41:25.127Z,12.04
2019-02-12T09:44:42.268Z,12.09
2019-02-12T09:47:36.180Z,11.58
2019-02-12T09:50:22.434Z,12.25
2019-02-12T09:53:10.218Z,12.75
2019-02-12T09:55:44.534Z,12.26
2019-02-12T09:58:47.975Z,12.32
2019-02-12T10:01:28.383Z,12.43
2019-02-12T10:04:16.309Z,12.41
2019-02-12T10:06:59.876Z,13.30
2019-02-12T10:09:55.389Z,12.24
2019-02-12T10:12:45.287Z,12.59
2019-02-12T10:15:22.989Z,13.13
2019-02-12T10:18:09.444Z,13.08
2019-02-12T10:20:43.289Z,12.47
2019-02-12T10:23:17.215Z,12.54
2019-02-12T10:25:46.883Z,12.28
2019-02-12T10:28:36.516Z,13.14
2019-02-12T10:31:07.966Z,14.07
2019-02-12T10:33:36.235Z,13.48
2019-02-12T10:36:04.563Z,14.09
2019-02-12T10:38:41.370Z,13.97
2019-02-12T10:41:09.870Z,14.88
2019-02-12T10:43:38.142Z,14.42
2019-02-12T10:46:06.421Z,14.04
2019-02-12T10:48:34.697Z,13.88
2019-02-12T10:51:02.954Z,13.56
2019-02-12T10:53:31.243Z,12.86
2019-02-12T10:55:59.515Z,12.86
2019-02-12T10:58:27.784Z,12.29
2019-02-12T11:00:56.073Z,12.81
2019-02-12T11:03:24.338Z,12.66
2019-02-12T11:05:52.613Z,12.72
2019-02-12T11:08:20.916Z,13.79
2019-02-12T11:10:49.155Z,12.70
2019-02-12T11:13:17.467Z,12.97
2019-02-12T11:15:45.722Z,13.43
2019-02-12T11:18:14.015Z,12.51
2019-02-12T11:20:42.288Z,13.11
2019-02-12T11:23:11.047Z,13.92
2019-02-12T11:25:39.404Z,13.90
2019-02-12T11:28:07.675Z,14.25
2019-02-12T11:30:35.969Z,13.45
2019-02-12T11:33:04.328Z,12.75
2019-02-12T11:35:32.586Z,12.88
2019-02-12T11:38:00.846Z,12.99
2019-02-12T11:40:29.126Z,13.10
2019-02-12T11:42:57.390Z,13.05
2019-02-12T11:45:25.674Z,12.52
2019-02-12T11:47:53.937Z,12.36
2019-02-12T11:50:22.211Z,13.11
2019-02-12T11:52:50.451Z,12.93
2019-02-12T11:55:18.722Z,13.96
2019-02-12T11:57:47.001Z,14.87
2019-02-12T12:00:18.040Z,13.52
2019-02-12T12:02:46.295Z,14.06
2019-02-12T12:05:14.666Z,14.94
2019-02-12T12:07:42.960Z,13.87
2019-02-12T12:10:11.709Z,13.50
2019-02-12T12:12:40.005Z,13.98
2019-02-12T12:15:13.170Z,14.15
2019-02-12T12:17:41.451Z,13.14
2019-02-12T12:20:14.664Z,13.80
2019-02-12T12:22:42.923Z,14.36
2019-02-12T12:25:12.680Z,13.65
2019-02-12T12:27:40.971Z,13.40
2019-02-12T12:30:13.876Z,14.57
2019-02-12T12:32:42.152Z,13.25
2019-02-12T12:35:11.581Z,14.09
2019-02-12T12:37:39.965Z,15.01
2019-02-12T12:40:12.432Z,15.72
2019-02-12T12:42:40.710Z,14.59
2019-02-12T12:45:13.799Z,13.98
2019-02-12T12:47:42.134Z,13.85
2019-02-12T12:50:13.731Z,14.08
2019-02-12T12:52:42.079Z,15.48
2019-02-12T12:55:10.893Z,14.04
2019-02-12T12:57:42.077Z,13.38
2019-02-12T13:00:12.732Z,14.69
2019-02-12T13:02:41.565Z,15.62
2019-02-12T13:05:11.120Z,15.69
2019-02-12T13:07:39.449Z,15.03
2019-02-12T13:10:11.061Z,14.69
2019-02-12T13:12:39.329Z,14.32
2019-02-12T13:15:10.389Z,15.53
2019-02-12T13:17:38.720Z,16.06
2019-02-12T13:20:13.097Z,17.45
2019-02-12T13:22:41.380Z,17.93
2019-02-12T13:25:12.160Z,17.27
2019-02-12T13:27:43.263Z,17.23
2019-02-12T13:30:18.846Z,17.29
2019-02-12T13:32:47.112Z,18.34
2019-02-12T13:35:15.490Z,16.70
2019-02-12T13:37:43.755Z,16.43
2019-02-12T13:40:13.068Z,16.85
2019-02-12T13:42:41.409Z,15.20
2019-02-12T13:45:16.623Z,16.27
2019-02-12T13:47:44.910Z,16.01
2019-02-12T13:50:13.755Z,15.97
2019-02-12T13:52:42.070Z,14.97
2019-02-12T13:55:17.439Z,17.16
2019-02-12T13:57:44.369Z,19.51
2019-02-12T14:00:17.419Z,19.67
2019-02-12T14:02:45.756Z,20.14
2019-02-12T14:05:16.980Z,18.44
2019-02-12T14:07:45.230Z,19.19
2019-02-12T14:10:13.505Z,18.01
2019-02-12T14:12:41.801Z,15.91
2019-02-12T14:15:12.393Z,15.56
2019-02-12T14:17:40.657Z,18.14
2019-02-12T14:20:14.445Z,18.18
2019-02-12T14:22:42.705Z,18.25
2019-02-12T14:25:15.225Z,18.21
2019-02-12T14:27:43.508Z,19.35
2019-02-12T14:30:17.904Z,17.84
2019-02-12T14:32:46.140Z,18.69
2019-02-12T14:35:14.422Z,18.62
2019-02-12T14:37:42.722Z,16.38
2019-02-12T14:40:13.205Z,16.60
2019-02-12T14:42:41.457Z,16.85
2019-02-12T14:45:15.532Z,17.11
2019-02-12T14:47:43.935Z,16.89
2019-02-12T14:50:14.088Z,16.92
2019-02-12T14:52:42.370Z,16.56
2019-02-12T14:55:10.699Z,17.01
2019-02-12T14:57:38.974Z,16.72
2019-02-12T15:00:16.094Z,15.92
2019-02-12T15:02:44.357Z,15.68
2019-02-12T15:05:12.715Z,15.29
2019-02-12T15:07:41.045Z,15.90
2019-02-12T15:10:11.481Z,15.76
2019-02-12T15:12:39.772Z,15.99
2019-02-12T15:15:09.758Z,14.81
2019-02-12T15:17:38.061Z,15.77
2019-02-12T15:20:13.242Z,16.62
2019-02-12T15:22:41.607Z,15.95
2019-02-12T15:25:11.526Z,15.44
2019-02-12T15:27:39.802Z,15.55
2019-02-12T15:30:11.504Z,15.38
2019-02-12T15:32:39.792Z,15.16
2019-02-12T15:35:09.420Z,15.95
2019-02-12T15:37:37.695Z,16.15
2019-02-12T15:40:14.981Z,15.71
2019-02-12T15:43:05.628Z,15.25
2019-02-12T15:48:27.478Z,16.13
2019-02-12T15:51:03.152Z,16.18
2019-02-12T15:53:37.161Z,16.15
2019-02-12T15:56:12.848Z,15.88
2019-02-12T15:58:51.644Z,15.82
2019-02-12T16:04:50.198Z,16.16
2019-02-12T16:10:34.790Z,15.92
2019-02-12T16:13:28.973Z,15.52
2019-02-12T16:16:05.717Z,16.33
2019-02-12T16:18:41.113Z,16.79
2019-02-12T16:21:23.003Z,16.77
2019-02-12T16:23:54.447Z,16.60
2019-02-12T16:26:27.417Z,15.93
2019-02-12T16:29:03.656Z,15.72
2019-02-12T16:31:46.776Z,16.53
2019-02-12T16:34:29.731Z,17.00
2019-02-12T16:37:07.211Z,16.75
2019-02-12T16:42:29.848Z,15.98
2019-02-12T16:48:02.373Z,16.74
2019-02-12T16:50:34.296Z,16.56
2019-02-12T16:53:07.347Z,16.67
2019-02-12T16:55:35.683Z,16.18
2019-02-12T16:58:04.845Z,16.08
2019-02-12T17:00:33.217Z,16.01
2019-02-12T17:03:01.504Z,16.24
2019-02-12T17:05:32.382Z,16.62
2019-02-12T17:08:00.687Z,15.39
2019-02-12T17:10:28.959Z,15.72
2019-02-12T17:12:57.232Z,16.34
2019-02-12T17:15:25.507Z,15.77
2019-02-12T17:17:56.264Z,16.22
2019-02-12T17:20:25.117Z,16.09
2019-02-12T17:22:53.392Z,14.55
2019-02-12T17:25:21.674Z,13.69
2019-02-12T17:27:50.942Z,14.53
2019-02-12T17:30:19.304Z,14.45
2019-02-12T17:32:47.630Z,14.87
2019-02-12T17:35:15.902Z,14.35
2019-02-12T17:37:44.165Z,16.23
2019-02-12T17:40:17.123Z,15.07
2019-02-12T17:42:48.537Z,14.27
2019-02-12T17:45:19.930Z,14.66
2019-02-12T17:47:48.636Z,14.26
2019-02-12T17:50:19.844Z,14.08
2019-02-12T17:52:48.559Z,13.98
2019-02-12T17:55:20.292Z,14.04
2019-02-12T17:57:50.422Z,14.00
2019-02-12T18:00:41.519Z,14.25
2019-02-12T18:03:15.572Z,13.77
2019-02-12T18:05:50.285Z,14.28
2019-02-12T18:08:30.481Z,13.40
2019-02-12T18:11:05.085Z,13.87
2019-02-12T18:13:38.275Z,14.11
2019-02-12T18:16:10.522Z,14.97
2019-02-12T18:18:38.929Z,13.84
2019-02-12T18:21:07.345Z,14.06
2019-02-12T18:23:52.889Z,14.09
2019-02-12T18:26:24.358Z,13.92
2019-02-12T18:28:56.266Z,14.54
2019-02-12T18:31:29.927Z,13.98
2019-02-12T18:34:02.898Z,13.75
2019-02-12T18:36:36.499Z,13.60
2019-02-12T18:39:06.254Z,14.39
2019-02-12T18:41:37.770Z,15.04
2019-02-12T18:44:06.077Z,14.63
2019-02-12T18:46:44.893Z,14.71
2019-02-12T18:49:13.311Z,14.06
2019-02-12T18:51:41.926Z,14.32
2019-02-12T18:54:10.932Z,13.93
2019-02-12T18:56:44.312Z,14.10
2019-02-12T18:59:12.897Z,14.28
2019-02-12T19:01:41.630Z,14.10
2019-02-12T19:04:10.061Z,14.05
2019-02-12T19:06:44.151Z,13.92
2019-02-12T19:09:14.534Z,14.15
2019-02-12T19:11:52.687Z,13.88
2019-02-12T19:14:13.200Z,14.08
2019-02-12T19:16:42.808Z,14.43
2019-02-12T19:19:11.377Z,13.83
2019-02-12T19:21:39.851Z,14.22
2019-02-12T19:24:08.287Z,14.53
2019-02-12T19:26:36.572Z,14.54
2019-02-12T19:29:05.112Z,13.94
2019-02-12T19:31:33.577Z,14.02
2019-02-12T19:34:02.043Z,13.52
2019-02-12T19:36:31.850Z,13.57
2019-02-12T19:39:00.818Z,13.74
2019-02-12T19:41:29.365Z,13.56
2019-02-12T19:43:57.837Z,13.00
2019-02-12T19:46:27.849Z,12.53
2019-02-12T19:49:01.429Z,12.63
2019-02-12T19:51:29.808Z,12.63
2019-02-12T19:53:58.251Z,12.87
2019-02-12T19:56:27.507Z,12.29
2019-02-12T19:58:55.926Z,12.40
2019-02-12T20:01:24.299Z,12.57
2019-02-12T20:03:53.509Z,11.58
2019-02-12T20:06:22.883Z,11.44
2019-02-12T20:08:51.915Z,12.06
2019-02-12T20:11:20.447Z,12.51
2019-02-12T20:13:48.801Z,12.78
2019-02-12T20:16:18.931Z,12.78
2019-02-12T20:18:49.667Z,12.49
2019-02-12T20:21:18.034Z,12.28
2019-02-12T20:23:46.616Z,12.17
2019-02-12T20:26:22.415Z,11.67
2019-02-12T20:28:51.428Z,12.03
2019-02-12T20:31:23.191Z,11.57
2019-02-12T20:33:57.176Z,10.81
2019-02-12T20:36:27.276Z,12.13
2019-02-12T20:39:05.480Z,11.77
2019-02-12T20:41:40.703Z,12.09
2019-02-12T20:44:09.924Z,12.66
2019-02-12T20:46:40.196Z,12.26
2019-02-12T20:49:11.389Z,11.74
2019-02-12T20:51:43.076Z,11.61
2019-02-12T20:57:26.227Z,11.61
2019-02-12T21:00:09.373Z,11.82
2019-02-12T21:02:42.583Z,11.68
2019-02-12T21:05:13.782Z,11.15
2019-02-12T21:08:02.740Z,11.57
2019-02-12T21:10:45.023Z,11.98
2019-02-12T21:13:18.050Z,11.74
2019-02-12T21:15:52.128Z,12.29
2019-02-12T21:18:33.499Z,10.74
2019-02-12T21:21:07.888Z,11.75
2019-02-12T21:23:50.126Z,11.49
2019-02-12T21:26:39.287Z,10.49
2019-02-12T21:29:09.515Z,12.03
2019-02-12T21:31:42.646Z,12.45
2019-02-12T21:34:15.685Z,12.21
2019-02-12T21:39:36.303Z,12.43
2019-02-12T21:42:12.443Z,10.67
2019-02-12T21:44:51.325Z,12.30
2019-02-12T21:49:13.795Z,12.14
2019-02-12T21:50:11.806Z,11.46
2019-02-12T21:52:58.104Z,13.05
2019-02-12T21:55:34.621Z,12.73
2019-02-12T21:58:17.596Z,13.03
2019-02-12T22:01:11.265Z,12.37
2019-02-12T22:04:00.415Z,12.34
2019-02-12T22:09:56.937Z,12.71
2019-02-12T22:12:30.792Z,11.97
2019-02-12T22:15:00.903Z,13.23
2019-02-12T22:17:36.866Z,11.60
2019-02-12T22:23:02.039Z,12.90
2019-02-12T22:25:45.771Z,12.71
2019-02-12T22:28:14.520Z,12.75
2019-02-12T22:30:51.389Z,12.48
2019-02-12T22:33:36.097Z,12.23
2019-02-12T22:36:14.121Z,12.02
2019-02-12T22:39:04.863Z,12.31
2019-02-12T22:41:42.293Z,12.05
2019-02-12T22:44:21.568Z,12.03
2019-02-12T22:47:28.985Z,11.78
2019-02-12T22:56:31.087Z,11.58
2019-02-12T22:59:05.578Z,12.58
2019-02-12T23:07:55.989Z,12.64
2019-02-12T23:10:39.427Z,11.96
2019-02-12T23:13:17.843Z,12.89
2019-02-12T23:15:49.277Z,12.90
2019-02-12T23:18:27.212Z,12.11
2019-02-12T23:21:15.683Z,12.81
2019-02-12T23:24:17.292Z,12.65
2019-02-12T23:30:07.706Z,11.51
2019-02-12T23:33:03.289Z,11.69
2019-02-12T23:35:47.469Z,12.31
2019-02-12T23:38:18.927Z,12.67
2019-02-12T23:41:19.550Z,13.02
2019-02-12T23:44:17.087Z,13.21
2019-02-12T23:47:04.501Z,13.56
2019-02-12T23:50:19.473Z,12.97
2019-02-12T23:53:21.241Z,12.58
